S73 Hermelin — DRCG — position and weather

sailwx.info

Track history (hours):
 
Tides and Currents Weather Stations Pressure Air Temp Water Temp Dewpoint Dewpoint Depression Visibility Wind Speed Wind Dir Waves Ship Positions

S73 Hermelin

Last reported at 2014-Nov-13 15:31 UTC. Time now 2014-Nov-21 18:03 UTC.
Position N 54°10' E 012°07'.
Warning: this ship's position is 8 days out of date.

Length 58 m.

Type: Military. MMSI: 211210610.

Date/timePositionNaut miles runAvg speedWind from/ knotsBaromVisibWave heightAir tempDewpointWater temp
2014-Nov-13 15:31N 54°10' E 012°07'7 6.7
2014-Nov-13 14:30N 54°12' E 011°56'9 9.2
2014-Nov-13 13:33N 54°14' E 011°41'35 1.6
2014-Nov-12 16:06N 54°27' E 010°47'2 0.7
2014-Nov-12 13:32N 54°26' E 010°44'29 7.1
2014-Nov-12 09:29N 54°21' E 011°33'8 8.7
2014-Nov-12 08:33N 54°14' E 011°41'16 8.1
2014-Nov-12 06:34N 54°02' E 011°24'6 6.1
2014-Nov-12 05:33N 53°57' E 011°18'0 0.0
2014-Nov-11 21:07N 53°57' E 011°17'2 4.4
2014-Nov-11 20:33N 53°59' E 011°20'38 9.4
2014-Nov-11 16:33N 54°27' E 012°03'2510.3
2014-Nov-11 14:10N 54°52' E 012°09'  
2014-Nov-05 10:07N 55°09' E 009°52'1323.8
2014-Nov-05 09:33N 54°58' E 010°06'1511.8
2014-Nov-05 08:19N 54°45' E 010°17'18 1.8
2014-Nov-04 22:30N 54°52' E 009°48'2 2.0
2014-Nov-04 21:32N 54°51' E 009°50'3 3.3
2014-Nov-04 20:31N 54°50' E 009°56'11 2.7
2014-Nov-04 16:22N 54°43' E 010°11'1310.1
2014-Nov-04 15:05N 54°34' E 010°28'4 5.4
2014-Nov-04 14:17N 54°37' E 010°21'2 2.1
2014-Nov-04 13:23N 54°38' E 010°20'1 1.0
2014-Nov-04 12:27N 54°39' E 010°19'7 7.7
2014-Nov-04 11:33N 54°42' E 010°09'5 3.7
2014-Nov-04 10:12N 54°45' E 010°02'6 7.3
2014-Nov-04 09:25N 54°43' E 010°11'6 7.3
2014-Nov-04 08:32N 54°37' E 010°11'6 5.1
2014-Nov-04 07:19N 54°32' E 010°05'1 0.1
2014-Nov-03 20:33N 54°32' E 010°06'2 2.2
2014-Nov-03 19:31N 54°34' E 010°05'4 9.9
2014-Nov-03 19:09N 54°35' E 010°11'  
Track history (hours):
 
Tides and Currents Weather Stations Pressure Air Temp Water Temp Dewpoint Dewpoint Depression Visibility Wind Speed Wind Dir Waves Ship Positions

S73 Hermelin

Last reported at 2014-Nov-13 15:31 UTC. Time now 2014-Nov-21 18:03 UTC.
Position N 54°10' E 012°07'.
Warning: this ship's position is 8 days out of date.

Length 58 m.

Type: Military. MMSI: 211210610.

Date/timePositionNaut miles runAvg speedWind from/ knotsBaromVisibWave heightAir tempDewpointWater temp
2014-Nov-13 15:31N 54°10' E 012°07'7 6.7
2014-Nov-13 14:30N 54°12' E 011°56'9 9.2
2014-Nov-13 13:33N 54°14' E 011°41'35 1.6
2014-Nov-12 16:06N 54°27' E 010°47'2 0.7
2014-Nov-12 13:32N 54°26' E 010°44'29 7.1
2014-Nov-12 09:29N 54°21' E 011°33'8 8.7
2014-Nov-12 08:33N 54°14' E 011°41'16 8.1
2014-Nov-12 06:34N 54°02' E 011°24'6 6.1
2014-Nov-12 05:33N 53°57' E 011°18'0 0.0
2014-Nov-11 21:07N 53°57' E 011°17'2 4.4
2014-Nov-11 20:33N 53°59' E 011°20'38 9.4
2014-Nov-11 16:33N 54°27' E 012°03'2510.3
2014-Nov-11 14:10N 54°52' E 012°09'  
2014-Nov-05 10:07N 55°09' E 009°52'1323.8
2014-Nov-05 09:33N 54°58' E 010°06'1511.8
2014-Nov-05 08:19N 54°45' E 010°17'18 1.8
2014-Nov-04 22:30N 54°52' E 009°48'2 2.0
2014-Nov-04 21:32N 54°51' E 009°50'3 3.3
2014-Nov-04 20:31N 54°50' E 009°56'11 2.7
2014-Nov-04 16:22N 54°43' E 010°11'1310.1
2014-Nov-04 15:05N 54°34' E 010°28'4 5.4
2014-Nov-04 14:17N 54°37' E 010°21'2 2.1
2014-Nov-04 13:23N 54°38' E 010°20'1 1.0
2014-Nov-04 12:27N 54°39' E 010°19'7 7.7
2014-Nov-04 11:33N 54°42' E 010°09'5 3.7
2014-Nov-04 10:12N 54°45' E 010°02'6 7.3
2014-Nov-04 09:25N 54°43' E 010°11'6 7.3
2014-Nov-04 08:32N 54°37' E 010°11'6 5.1
2014-Nov-04 07:19N 54°32' E 010°05'1 0.1
2014-Nov-03 20:33N 54°32' E 010°06'2 2.2
2014-Nov-03 19:31N 54°34' E 010°05'4 9.9
2014-Nov-03 19:09N 54°35' E 010°11'  

Dump ship's entire track history